KAIZ/AIZ METAR and TAF weather

Enter ICAO airport designator
Station Type Date Time Source
KAIZ METAR 2019/04/25 20:56 UTC NOAA

KAIZ 252056Z AUTO VRB03KT 10SM CLR 19/13 A2977 RMK AO2 SLP077 T01890133 57005


Station Type Date Time Source
KAIZ Decoded METAR 2019/04/25 20:56 UTC NOAA

Kaiser Lake Ozark, Lee C Fine Memorial Airport, MO, United States (KAIZ) 38-06N 092-33W
Apr 25, 2019 - 04:56 PM EDT / 2019.04.25 2056 UTC
Wind: Variable at 3 MPH (3 KT):0
Visibility: 10 mile(s):0
Sky conditions: clear
Temperature: 66.0 F (18.9 C)
Dew Point: 55.9 F (13.3 C)
Relative Humidity: 69%
Pressure (altimeter): 29.77 in. Hg (1008 hPa)
Pressure tendency: 0.01 inches (0.5 hPa) lower than three hours ago
ob: KAIZ 252056Z AUTO VRB03KT 10SM CLR 19/13 A2977 RMK AO2 SLP077 T01890133 57005
cycle: 21

Station Type Date Time Source
KAIZ TAF UTC NOAA

Error!

Example: see airport list